Hansa Flensburg — A8AL3 — position and weather

sailwx.info

Track history (hours):
 
Tides and Currents Weather Stations Pressure Air Temp Water Temp Dewpoint Dewpoint Depression Visibility Wind Speed Wind Dir Waves Ship Positions

Hansa Flensburg

Last reported at 2017-Dec-16 14:57 UTC. Time now 2017-Dec-17 17:56 UTC.
Position N 39°48' E 023°35'.

Length 175 m; beam 27 m; draft 10 m.

Type: Ship (hazmat cat A). MMSI: 636090566.

Date/timePositionNaut miles runAvg speedWind from/ knotsBaromVisibWave heightAir tempDewpointWater temp
2017-Dec-16 14:57N 39°48' E 023°35'1517.8
2017-Dec-16 14:08N 39°43' E 023°53'318.3
2017-Dec-16 14:00N 39°43' E 023°56'918.1
2017-Dec-16 13:30N 39°43' E 024°08'1917.2
2017-Dec-16 12:23N 39°43' E 024°33'616.5
2017-Dec-16 12:01N 39°43' E 024°41'816.6
2017-Dec-16 11:30N 39°43' E 024°52'816.1
2017-Dec-16 11:00N 39°43' E 025°03'2615.2
2017-Dec-16 09:18N 39°49' E 025°35'515.2
2017-Dec-16 08:58N 39°52' E 025°41'157 9.2
2017-Dec-15 15:52N 40°26' E 029°01'3 8.6
2017-Dec-15 15:30N 40°25' E 029°04'0 0.0
2017-Dec-15 05:59N 40°25' E 029°05'2 3.9
2017-Dec-15 05:29N 40°26' E 029°03'30 9.4
2017-Dec-15 02:18N 40°51' E 028°41'193 6.4
2017-Dec-13 20:07N 38°58' E 025°18'515.6
2017-Dec-13 19:50N 38°53' E 025°15'3716.1
2017-Dec-13 17:32N 38°20' E 024°55'015.5
2017-Dec-13 17:30N 38°20' E 024°55'815.7
2017-Dec-13 17:01N 38°13' E 024°50'1715.7
2017-Dec-13 15:56N 37°58' E 024°40'615.5
2017-Dec-13 15:31N 37°53' E 024°35'816.1
2017-Dec-13 15:01N 37°48' E 024°27'816.0
2017-Dec-13 14:30N 37°43' E 024°19'816.0
2017-Dec-13 14:00N 37°38' E 024°11'815.5
2017-Dec-13 13:31N 37°35' E 024°02'815.6
2017-Dec-13 13:00N 37°36' E 023°52'714.8
2017-Dec-13 12:30N 37°39' E 023°43'816.0
2017-Dec-13 12:00N 37°46' E 023°39'611.7
2017-Dec-13 11:31N 37°52' E 023°36'5 9.2
2017-Dec-13 11:00N 37°56' E 023°36'1 2.4
2017-Dec-13 10:27N 37°57' E 023°35'0 0.0
2017-Dec-13 09:57N 37°57' E 023°35'0 0.0
2017-Dec-13 09:27N 37°57' E 023°35'0 0.0
2017-Dec-13 08:57N 37°57' E 023°35'0 0.0
2017-Dec-13 08:27N 37°57' E 023°35'0 0.0
2017-Dec-13 07:57N 37°57' E 023°35'0 0.0
2017-Dec-13 07:27N 37°57' E 023°35'0 0.0
2017-Dec-13 06:57N 37°57' E 023°35'0 0.0
2017-Dec-13 06:27N 37°57' E 023°35'0 0.0
2017-Dec-13 05:57N 37°57' E 023°35'0 0.0
2017-Dec-13 05:27N 37°57' E 023°35'0 0.0
2017-Dec-13 04:57N 37°57' E 023°35'0 0.0
2017-Dec-13 04:27N 37°57' E 023°35'0 0.0
2017-Dec-13 03:57N 37°57' E 023°35'0 0.0
2017-Dec-13 03:27N 37°57' E 023°35'0 0.0
2017-Dec-13 02:57N 37°57' E 023°35'0 0.0
2017-Dec-13 02:27N 37°57' E 023°35'0 0.0
2017-Dec-13 01:57N 37°57' E 023°35'0 0.0
2017-Dec-13 01:27N 37°57' E 023°35'0 0.0
2017-Dec-13 00:57N 37°57' E 023°35'0 0.0
2017-Dec-13 00:27N 37°57' E 023°35'0 0.0
2017-Dec-12 23:57N 37°57' E 023°35'0 0.0
2017-Dec-12 23:27N 37°57' E 023°35'0 0.0
2017-Dec-12 22:57N 37°57' E 023°35'0 0.0
2017-Dec-12 22:27N 37°57' E 023°35'0 0.0
2017-Dec-12 21:57N 37°57' E 023°35'0 0.0
2017-Dec-12 21:27N 37°57' E 023°35'0 0.0
2017-Dec-12 20:57N 37°57' E 023°35'0 0.0
2017-Dec-12 20:27N 37°57' E 023°35'0 0.0
2017-Dec-12 19:57N 37°57' E 023°35'0 0.0
2017-Dec-12 19:27N 37°57' E 023°35'0 0.0
2017-Dec-12 18:57N 37°57' E 023°35'0 0.0
2017-Dec-12 18:27N 37°57' E 023°35'0 0.0
2017-Dec-12 17:57N 37°57' E 023°35'0 0.0
2017-Dec-12 17:27N 37°57' E 023°35'0 0.0
2017-Dec-12 16:57N 37°57' E 023°35'0 0.0
2017-Dec-12 16:27N 37°57' E 023°35'0 0.0
2017-Dec-12 15:57N 37°57' E 023°35'0 0.0
2017-Dec-12 15:27N 37°57' E 023°35'0 0.0
2017-Dec-12 14:57N 37°57' E 023°35'0 0.0
2017-Dec-12 14:27N 37°57' E 023°35'0 0.0
2017-Dec-12 13:57N 37°57' E 023°35'0 0.0
2017-Dec-12 13:27N 37°57' E 023°35'0 0.0
2017-Dec-12 12:57N 37°57' E 023°35'0 0.0
2017-Dec-12 12:27N 37°57' E 023°35'0 0.0
2017-Dec-12 11:57N 37°57' E 023°35'0 0.0
2017-Dec-12 11:27N 37°57' E 023°35'0 0.0
2017-Dec-12 10:57N 37°57' E 023°35'0 0.0
2017-Dec-12 10:27N 37°57' E 023°35'0 0.0
2017-Dec-12 09:57N 37°57' E 023°35'0 0.0
2017-Dec-12 09:27N 37°57' E 023°35'0 0.0
2017-Dec-12 08:57N 37°57' E 023°35'0 0.0
2017-Dec-12 08:27N 37°57' E 023°35'0 0.0
2017-Dec-12 07:57N 37°57' E 023°35'0 0.0
2017-Dec-12 07:27N 37°57' E 023°35'0 0.0
2017-Dec-12 06:57N 37°57' E 023°35'0 0.0
2017-Dec-12 06:27N 37°57' E 023°35'0 0.0
2017-Dec-12 05:57N 37°57' E 023°35'0 0.0
2017-Dec-12 05:27N 37°57' E 023°35'0 0.0
2017-Dec-12 04:57N 37°57' E 023°35'0 0.0
2017-Dec-12 04:27N 37°57' E 023°35'0 0.0
2017-Dec-12 03:57N 37°57' E 023°35'0 0.0
2017-Dec-12 03:27N 37°57' E 023°35'0 0.0
2017-Dec-12 02:57N 37°57' E 023°35'0 0.0
2017-Dec-12 02:27N 37°57' E 023°35'0 0.0
2017-Dec-12 01:57N 37°57' E 023°35'0 0.0
2017-Dec-12 01:27N 37°57' E 023°35'0 0.0
2017-Dec-12 00:57N 37°57' E 023°35'0 0.0
2017-Dec-12 00:27N 37°57' E 023°35'0 0.0
2017-Dec-11 23:57N 37°57' E 023°35'0 0.0
2017-Dec-11 23:28N 37°57' E 023°35'0 0.0
2017-Dec-11 22:57N 37°57' E 023°35'0 0.0
2017-Dec-11 22:28N 37°57' E 023°35'0 0.0
2017-Dec-11 21:57N 37°57' E 023°35'0 0.0
2017-Dec-11 21:27N 37°57' E 023°35'0 0.0
2017-Dec-11 20:58N 37°57' E 023°35'0 0.0
2017-Dec-11 20:28N 37°57' E 023°35'0 0.0
2017-Dec-11 19:58N 37°57' E 023°35'0 0.0
2017-Dec-11 19:28N 37°57' E 023°35'0 0.0
2017-Dec-11 18:58N 37°57' E 023°35'0 0.0
2017-Dec-11 18:28N 37°57' E 023°35'0 0.0
2017-Dec-11 17:58N 37°57' E 023°35'0 0.0
2017-Dec-11 17:28N 37°57' E 023°35'0 0.0
2017-Dec-11 16:58N 37°57' E 023°35'0 0.0
2017-Dec-11 16:28N 37°57' E 023°35'0 0.0
2017-Dec-11 15:58N 37°57' E 023°35'0 0.0
2017-Dec-11 15:28N 37°57' E 023°35'0 0.0
2017-Dec-11 14:58N 37°57' E 023°35'0 0.0
2017-Dec-11 14:28N 37°57' E 023°35'0 0.0
2017-Dec-11 13:58N 37°57' E 023°35'0 0.0
2017-Dec-11 13:28N 37°57' E 023°35'0 0.0
2017-Dec-11 12:58N 37°57' E 023°35'0 0.0
2017-Dec-11 12:28N 37°57' E 023°35'0 0.0
2017-Dec-11 11:58N 37°57' E 023°35'0 0.0
2017-Dec-11 11:28N 37°57' E 023°35'0 0.0
2017-Dec-11 10:58N 37°57' E 023°35'0 0.0
2017-Dec-11 10:28N 37°57' E 023°35'0 0.0
2017-Dec-11 09:58N 37°57' E 023°35'0 0.0
2017-Dec-11 09:28N 37°57' E 023°35'0 0.0
2017-Dec-11 08:58N 37°57' E 023°35'0 0.0
2017-Dec-11 08:28N 37°57' E 023°35'0 0.0
2017-Dec-11 07:52N 37°57' E 023°35'0 0.0
2017-Dec-11 07:28N 37°57' E 023°35'2 3.7
2017-Dec-11 07:01N 37°56' E 023°35'1 1.9
2017-Dec-11 06:30N 37°55' E 023°35'3 6.0
2017-Dec-11 06:00N 37°52' E 023°33'2 4.4
2017-Dec-11 05:29N 37°52' E 023°30'0 0.2
2017-Dec-11 04:59N 37°52' E 023°30'0 0.0
2017-Dec-11 04:29N 37°52' E 023°30'0 0.0
2017-Dec-11 04:00N 37°52' E 023°30'0 0.0
2017-Dec-11 03:29N 37°52' E 023°30'0 0.0
2017-Dec-11 02:59N 37°52' E 023°30'0 0.0
2017-Dec-11 02:29N 37°52' E 023°30'0 0.0
2017-Dec-11 02:00N 37°52' E 023°30'0 0.0
2017-Dec-11 01:30N 37°52' E 023°30'0 0.0
2017-Dec-11 01:00N 37°52' E 023°30'0 0.0
2017-Dec-11 00:29N 37°52' E 023°30'0 0.2
2017-Dec-11 00:00N 37°52' E 023°30'0 0.1
2017-Dec-10 23:30N 37°52' E 023°30'0 0.1
2017-Dec-10 23:00N 37°52' E 023°30'0 0.0
2017-Dec-10 22:30N 37°52' E 023°30'0 0.0
2017-Dec-10 22:00N 37°52' E 023°30'0 0.0
2017-Dec-10 21:30N 37°52' E 023°30'0 0.0
2017-Dec-10 21:00N 37°52' E 023°30'0 0.1
2017-Dec-10 20:30N 37°52' E 023°30'0 0.0
2017-Dec-10 20:00N 37°52' E 023°30'0 0.0
2017-Dec-10 19:30N 37°52' E 023°30'0 0.0
2017-Dec-10 19:00N 37°52' E 023°30'0 0.0
2017-Dec-10 18:30N 37°52' E 023°30'0 0.1
2017-Dec-10 18:00N 37°52' E 023°30'0 0.1
2017-Dec-10 17:30N 37°52' E 023°30'0 0.0
2017-Dec-10 17:00N 37°52' E 023°30'0 0.0
2017-Dec-10 16:30N 37°52' E 023°30'0 0.0
2017-Dec-10 16:00N 37°52' E 023°30'0 0.0
2017-Dec-10 15:30N 37°52' E 023°30'0 0.0
2017-Dec-10 15:00N 37°52' E 023°30'0 0.1
2017-Dec-10 14:30N 37°52' E 023°30'0 0.0
2017-Dec-10 14:00N 37°52' E 023°30'0 0.1
2017-Dec-10 13:30N 37°52' E 023°30'0 0.2
2017-Dec-10 13:00N 37°52' E 023°30'2 3.3
2017-Dec-10 12:30N 37°51' E 023°32'3 6.2
2017-Dec-10 12:00N 37°51' E 023°36'4 7.6
2017-Dec-10 11:30N 37°49' E 023°40'5 9.6
2017-Dec-10 11:00N 37°45' E 023°42'4 8.1
2017-Dec-10 10:30N 37°41' E 023°45'712.9
2017-Dec-10 10:00N 37°37' E 023°52'713.6
2017-Dec-10 09:30N 37°35' E 023°60'713.7
2017-Dec-10 09:01N 37°37' E 024°08'914.2
2017-Dec-10 08:24N 37°42' E 024°17'614.8
2017-Dec-10 08:01N 37°46' E 024°22'815.0
2017-Dec-10 07:30N 37°51' E 024°29'714.0
2017-Dec-10 07:00N 37°57' E 024°35'2614.8
2017-Dec-10 05:15N 38°22' E 024°42'7813.4
2017-Dec-09 23:26N 39°36' E 024°12'  
Track history (hours):
 
Tides and Currents Weather Stations Pressure Air Temp Water Temp Dewpoint Dewpoint Depression Visibility Wind Speed Wind Dir Waves Ship Positions

Hansa Flensburg

Last reported at 2017-Dec-16 14:57 UTC. Time now 2017-Dec-17 17:56 UTC.
Position N 39°48' E 023°35'.

Length 175 m; beam 27 m; draft 10 m.

Type: Ship (hazmat cat A). MMSI: 636090566.

Date/timePositionNaut miles runAvg speedWind from/ knotsBaromVisibWave heightAir tempDewpointWater temp
2017-Dec-16 14:57N 39°48' E 023°35'1517.8
2017-Dec-16 14:08N 39°43' E 023°53'318.3
2017-Dec-16 14:00N 39°43' E 023°56'918.1
2017-Dec-16 13:30N 39°43' E 024°08'1917.2
2017-Dec-16 12:23N 39°43' E 024°33'616.5
2017-Dec-16 12:01N 39°43' E 024°41'816.6
2017-Dec-16 11:30N 39°43' E 024°52'816.1
2017-Dec-16 11:00N 39°43' E 025°03'2615.2
2017-Dec-16 09:18N 39°49' E 025°35'515.2
2017-Dec-16 08:58N 39°52' E 025°41'157 9.2
2017-Dec-15 15:52N 40°26' E 029°01'3 8.6
2017-Dec-15 15:30N 40°25' E 029°04'0 0.0
2017-Dec-15 05:59N 40°25' E 029°05'2 3.9
2017-Dec-15 05:29N 40°26' E 029°03'30 9.4
2017-Dec-15 02:18N 40°51' E 028°41'193 6.4
2017-Dec-13 20:07N 38°58' E 025°18'515.6
2017-Dec-13 19:50N 38°53' E 025°15'3716.1
2017-Dec-13 17:32N 38°20' E 024°55'015.5
2017-Dec-13 17:30N 38°20' E 024°55'815.7
2017-Dec-13 17:01N 38°13' E 024°50'1715.7
2017-Dec-13 15:56N 37°58' E 024°40'615.5
2017-Dec-13 15:31N 37°53' E 024°35'816.1
2017-Dec-13 15:01N 37°48' E 024°27'816.0
2017-Dec-13 14:30N 37°43' E 024°19'816.0
2017-Dec-13 14:00N 37°38' E 024°11'815.5
2017-Dec-13 13:31N 37°35' E 024°02'815.6
2017-Dec-13 13:00N 37°36' E 023°52'714.8
2017-Dec-13 12:30N 37°39' E 023°43'816.0
2017-Dec-13 12:00N 37°46' E 023°39'611.7
2017-Dec-13 11:31N 37°52' E 023°36'5 9.2
2017-Dec-13 11:00N 37°56' E 023°36'1 2.4
2017-Dec-13 10:27N 37°57' E 023°35'0 0.0
2017-Dec-13 09:57N 37°57' E 023°35'0 0.0
2017-Dec-13 09:27N 37°57' E 023°35'0 0.0
2017-Dec-13 08:57N 37°57' E 023°35'0 0.0
2017-Dec-13 08:27N 37°57' E 023°35'0 0.0
2017-Dec-13 07:57N 37°57' E 023°35'0 0.0
2017-Dec-13 07:27N 37°57' E 023°35'0 0.0
2017-Dec-13 06:57N 37°57' E 023°35'0 0.0
2017-Dec-13 06:27N 37°57' E 023°35'0 0.0
2017-Dec-13 05:57N 37°57' E 023°35'0 0.0
2017-Dec-13 05:27N 37°57' E 023°35'0 0.0
2017-Dec-13 04:57N 37°57' E 023°35'0 0.0
2017-Dec-13 04:27N 37°57' E 023°35'0 0.0
2017-Dec-13 03:57N 37°57' E 023°35'0 0.0
2017-Dec-13 03:27N 37°57' E 023°35'0 0.0
2017-Dec-13 02:57N 37°57' E 023°35'0 0.0
2017-Dec-13 02:27N 37°57' E 023°35'0 0.0
2017-Dec-13 01:57N 37°57' E 023°35'0 0.0
2017-Dec-13 01:27N 37°57' E 023°35'0 0.0
2017-Dec-13 00:57N 37°57' E 023°35'0 0.0
2017-Dec-13 00:27N 37°57' E 023°35'0 0.0
2017-Dec-12 23:57N 37°57' E 023°35'0 0.0
2017-Dec-12 23:27N 37°57' E 023°35'0 0.0
2017-Dec-12 22:57N 37°57' E 023°35'0 0.0
2017-Dec-12 22:27N 37°57' E 023°35'0 0.0
2017-Dec-12 21:57N 37°57' E 023°35'0 0.0
2017-Dec-12 21:27N 37°57' E 023°35'0 0.0
2017-Dec-12 20:57N 37°57' E 023°35'0 0.0
2017-Dec-12 20:27N 37°57' E 023°35'0 0.0
2017-Dec-12 19:57N 37°57' E 023°35'0 0.0
2017-Dec-12 19:27N 37°57' E 023°35'0 0.0
2017-Dec-12 18:57N 37°57' E 023°35'0 0.0
2017-Dec-12 18:27N 37°57' E 023°35'0 0.0
2017-Dec-12 17:57N 37°57' E 023°35'0 0.0
2017-Dec-12 17:27N 37°57' E 023°35'0 0.0
2017-Dec-12 16:57N 37°57' E 023°35'0 0.0
2017-Dec-12 16:27N 37°57' E 023°35'0 0.0
2017-Dec-12 15:57N 37°57' E 023°35'0 0.0
2017-Dec-12 15:27N 37°57' E 023°35'0 0.0
2017-Dec-12 14:57N 37°57' E 023°35'0 0.0
2017-Dec-12 14:27N 37°57' E 023°35'0 0.0
2017-Dec-12 13:57N 37°57' E 023°35'0 0.0
2017-Dec-12 13:27N 37°57' E 023°35'0 0.0
2017-Dec-12 12:57N 37°57' E 023°35'0 0.0
2017-Dec-12 12:27N 37°57' E 023°35'0 0.0
2017-Dec-12 11:57N 37°57' E 023°35'0 0.0
2017-Dec-12 11:27N 37°57' E 023°35'0 0.0
2017-Dec-12 10:57N 37°57' E 023°35'0 0.0
2017-Dec-12 10:27N 37°57' E 023°35'0 0.0
2017-Dec-12 09:57N 37°57' E 023°35'0 0.0
2017-Dec-12 09:27N 37°57' E 023°35'0 0.0
2017-Dec-12 08:57N 37°57' E 023°35'0 0.0
2017-Dec-12 08:27N 37°57' E 023°35'0 0.0
2017-Dec-12 07:57N 37°57' E 023°35'0 0.0
2017-Dec-12 07:27N 37°57' E 023°35'0 0.0
2017-Dec-12 06:57N 37°57' E 023°35'0 0.0
2017-Dec-12 06:27N 37°57' E 023°35'0 0.0
2017-Dec-12 05:57N 37°57' E 023°35'0 0.0
2017-Dec-12 05:27N 37°57' E 023°35'0 0.0
2017-Dec-12 04:57N 37°57' E 023°35'0 0.0
2017-Dec-12 04:27N 37°57' E 023°35'0 0.0
2017-Dec-12 03:57N 37°57' E 023°35'0 0.0
2017-Dec-12 03:27N 37°57' E 023°35'0 0.0
2017-Dec-12 02:57N 37°57' E 023°35'0 0.0
2017-Dec-12 02:27N 37°57' E 023°35'0 0.0
2017-Dec-12 01:57N 37°57' E 023°35'0 0.0
2017-Dec-12 01:27N 37°57' E 023°35'0 0.0
2017-Dec-12 00:57N 37°57' E 023°35'0 0.0
2017-Dec-12 00:27N 37°57' E 023°35'0 0.0
2017-Dec-11 23:57N 37°57' E 023°35'0 0.0
2017-Dec-11 23:28N 37°57' E 023°35'0 0.0
2017-Dec-11 22:57N 37°57' E 023°35'0 0.0
2017-Dec-11 22:28N 37°57' E 023°35'0 0.0
2017-Dec-11 21:57N 37°57' E 023°35'0 0.0
2017-Dec-11 21:27N 37°57' E 023°35'0 0.0
2017-Dec-11 20:58N 37°57' E 023°35'0 0.0
2017-Dec-11 20:28N 37°57' E 023°35'0 0.0
2017-Dec-11 19:58N 37°57' E 023°35'0 0.0
2017-Dec-11 19:28N 37°57' E 023°35'0 0.0
2017-Dec-11 18:58N 37°57' E 023°35'0 0.0
2017-Dec-11 18:28N 37°57' E 023°35'0 0.0
2017-Dec-11 17:58N 37°57' E 023°35'0 0.0
2017-Dec-11 17:28N 37°57' E 023°35'0 0.0
2017-Dec-11 16:58N 37°57' E 023°35'0 0.0
2017-Dec-11 16:28N 37°57' E 023°35'0 0.0
2017-Dec-11 15:58N 37°57' E 023°35'0 0.0
2017-Dec-11 15:28N 37°57' E 023°35'0 0.0
2017-Dec-11 14:58N 37°57' E 023°35'0 0.0
2017-Dec-11 14:28N 37°57' E 023°35'0 0.0
2017-Dec-11 13:58N 37°57' E 023°35'0 0.0
2017-Dec-11 13:28N 37°57' E 023°35'0 0.0
2017-Dec-11 12:58N 37°57' E 023°35'0 0.0
2017-Dec-11 12:28N 37°57' E 023°35'0 0.0
2017-Dec-11 11:58N 37°57' E 023°35'0 0.0
2017-Dec-11 11:28N 37°57' E 023°35'0 0.0
2017-Dec-11 10:58N 37°57' E 023°35'0 0.0
2017-Dec-11 10:28N 37°57' E 023°35'0 0.0
2017-Dec-11 09:58N 37°57' E 023°35'0 0.0
2017-Dec-11 09:28N 37°57' E 023°35'0 0.0
2017-Dec-11 08:58N 37°57' E 023°35'0 0.0
2017-Dec-11 08:28N 37°57' E 023°35'0 0.0
2017-Dec-11 07:52N 37°57' E 023°35'0 0.0
2017-Dec-11 07:28N 37°57' E 023°35'2 3.7
2017-Dec-11 07:01N 37°56' E 023°35'1 1.9
2017-Dec-11 06:30N 37°55' E 023°35'3 6.0
2017-Dec-11 06:00N 37°52' E 023°33'2 4.4
2017-Dec-11 05:29N 37°52' E 023°30'0 0.2
2017-Dec-11 04:59N 37°52' E 023°30'0 0.0
2017-Dec-11 04:29N 37°52' E 023°30'0 0.0
2017-Dec-11 04:00N 37°52' E 023°30'0 0.0
2017-Dec-11 03:29N 37°52' E 023°30'0 0.0
2017-Dec-11 02:59N 37°52' E 023°30'0 0.0
2017-Dec-11 02:29N 37°52' E 023°30'0 0.0
2017-Dec-11 02:00N 37°52' E 023°30'0 0.0
2017-Dec-11 01:30N 37°52' E 023°30'0 0.0
2017-Dec-11 01:00N 37°52' E 023°30'0 0.0
2017-Dec-11 00:29N 37°52' E 023°30'0 0.2
2017-Dec-11 00:00N 37°52' E 023°30'0 0.1
2017-Dec-10 23:30N 37°52' E 023°30'0 0.1
2017-Dec-10 23:00N 37°52' E 023°30'0 0.0
2017-Dec-10 22:30N 37°52' E 023°30'0 0.0
2017-Dec-10 22:00N 37°52' E 023°30'0 0.0
2017-Dec-10 21:30N 37°52' E 023°30'0 0.0
2017-Dec-10 21:00N 37°52' E 023°30'0 0.1
2017-Dec-10 20:30N 37°52' E 023°30'0 0.0
2017-Dec-10 20:00N 37°52' E 023°30'0 0.0
2017-Dec-10 19:30N 37°52' E 023°30'0 0.0
2017-Dec-10 19:00N 37°52' E 023°30'0 0.0
2017-Dec-10 18:30N 37°52' E 023°30'0 0.1
2017-Dec-10 18:00N 37°52' E 023°30'0 0.1
2017-Dec-10 17:30N 37°52' E 023°30'0 0.0
2017-Dec-10 17:00N 37°52' E 023°30'0 0.0
2017-Dec-10 16:30N 37°52' E 023°30'0 0.0
2017-Dec-10 16:00N 37°52' E 023°30'0 0.0
2017-Dec-10 15:30N 37°52' E 023°30'0 0.0
2017-Dec-10 15:00N 37°52' E 023°30'0 0.1
2017-Dec-10 14:30N 37°52' E 023°30'0 0.0
2017-Dec-10 14:00N 37°52' E 023°30'0 0.1
2017-Dec-10 13:30N 37°52' E 023°30'0 0.2
2017-Dec-10 13:00N 37°52' E 023°30'2 3.3
2017-Dec-10 12:30N 37°51' E 023°32'3 6.2
2017-Dec-10 12:00N 37°51' E 023°36'4 7.6
2017-Dec-10 11:30N 37°49' E 023°40'5 9.6
2017-Dec-10 11:00N 37°45' E 023°42'4 8.1
2017-Dec-10 10:30N 37°41' E 023°45'712.9
2017-Dec-10 10:00N 37°37' E 023°52'713.6
2017-Dec-10 09:30N 37°35' E 023°60'713.7
2017-Dec-10 09:01N 37°37' E 024°08'914.2
2017-Dec-10 08:24N 37°42' E 024°17'614.8
2017-Dec-10 08:01N 37°46' E 024°22'815.0
2017-Dec-10 07:30N 37°51' E 024°29'714.0
2017-Dec-10 07:00N 37°57' E 024°35'2614.8
2017-Dec-10 05:15N 38°22' E 024°42'7813.4
2017-Dec-09 23:26N 39°36' E 024°12'  

Dump ship's entire track history